Time;durP1;ratioP1;P1;durP2;ratioP2;P2;SDS_P1;SDS_P2;PMS_P1;PMS_P2;Temp;Humidity;BMP_temperature;BMP_pressure;BME280_temperature;BME280_humidity;BME280_pressure;Samples;Min_cycle;Max_cycle;Signal;HPM_P1;HPM_P2
2023/10/02 00:06:18;;;;;;;11.40;5.00;;;;;;;14.06;73.19;99807.70;232881;214;149523;-62
2023/10/02 00:11:41;;;;;;;9.60;4.70;;;;;;;14.04;73.19;99806.96;232897;214;138886;-62
2023/10/02 00:17:04;;;;;;;13.20;5.00;;;;;;;14.04;73.34;99801.02;232900;215;138361;-59
2023/10/02 00:22:34;;;;;;;12.30;5.30;;;;;;;14.06;73.50;99792.88;232853;214;149123;-62
2023/10/02 00:27:36;;;;;;;10.60;5.50;;;;;;;14.09;73.54;99794.84;232954;214;139620;-65
2023/10/02 00:32:41;;;;;;;11.60;5.80;;;;;;;14.12;73.52;99791.42;232882;215;137257;-61
2023/10/02 00:37:45;;;;;;;13.70;5.40;;;;;;;14.13;73.54;99793.69;232842;214;149501;-58
2023/10/02 00:43:33;;;;;;;13.40;5.30;;;;;;;14.09;73.63;99786.27;232889;215;139020;-61
2023/10/02 00:48:28;;;;;;;11.50;4.90;;;;;;;14.04;73.83;99776.58;232953;214;137879;-62
2023/10/02 00:53:50;;;;;;;14.20;5.20;;;;;;;14.07;73.92;99778.58;232944;214;149401;-60
2023/10/02 00:59:00;;;;;;;11.80;4.90;;;;;;;14.12;73.82;99776.64;232841;215;139989;-61
2023/10/02 01:04:11;;;;;;;10.20;5.00;;;;;;;14.21;73.61;99775.87;232853;214;138459;-63
2023/10/02 01:09:18;;;;;;;10.40;5.10;;;;;;;14.23;73.45;99779.48;232944;215;149518;-61
2023/10/02 01:15:11;;;;;;;12.70;5.00;;;;;;;14.22;73.32;99775.46;232855;215;139318;-61
2023/10/02 01:19:57;;;;;;;15.00;5.20;;;;;;;14.19;73.39;99783.80;232891;215;137356;-60
2023/10/02 01:25:15;;;;;;;10.00;4.50;;;;;;;14.19;73.36;99783.11;232821;214;150988;-60
2023/10/02 01:30:23;;;;;;;9.40;4.70;;;;;;;14.25;73.24;99776.52;232875;215;138721;-60
2023/10/02 01:35:29;;;;;;;15.20;5.20;;;;;;;14.29;73.13;99778.92;232879;214;137314;-57
2023/10/02 01:40:33;;;;;;;11.20;4.80;;;;;;;14.30;73.00;99789.88;232993;214;148202;-58
2023/10/02 01:45:44;;;;;;;13.40;4.80;;;;;;;14.33;72.81;99797.73;232937;215;139272;-57
2023/10/02 01:50:48;;;;;;;14.70;5.20;;;;;;;14.33;72.68;99795.59;233068;215;137962;-59
2023/10/02 01:56:00;;;;;;;9.20;4.10;;;;;;;14.32;72.77;99795.27;232978;215;148448;-59
2023/10/02 02:01:06;;;;;;;14.40;5.10;;;;;;;14.30;72.78;99804.35;232940;215;137564;-59
2023/10/02 02:06:09;;;;;;;11.70;4.70;;;;;;;14.29;72.82;99807.48;232881;214;137571;-58
2023/10/02 02:11:20;;;;;;;12.50;4.80;;;;;;;14.30;72.77;99806.50;232880;214;149376;-60
2023/10/02 02:16:31;;;;;;;12.20;5.40;;;;;;;14.34;72.72;99801.63;232993;215;139617;-59
2023/10/02 02:21:35;;;;;;;12.40;5.00;;;;;;;14.35;72.78;99803.50;233020;214;137478;-59
2023/10/02 02:26:39;;;;;;;8.80;5.20;;;;;;;14.36;72.79;99798.94;232907;211;149294;-58
2023/10/02 02:31:43;;;;;;;10.50;5.10;;;;;;;14.32;72.79;99798.48;232866;215;139022;-59
2023/10/02 02:36:47;;;;;;;12.20;5.30;;;;;;;14.30;72.85;99793.81;233048;215;137925;-60
2023/10/02 02:42:08;;;;;;;10.10;4.60;;;;;;;14.29;73.03;99796.39;233029;215;150041;-59
2023/10/02 02:47:17;;;;;;;13.00;4.80;;;;;;;14.27;73.26;99795.80;232775;215;137722;-60
2023/10/02 02:52:33;;;;;;;11.60;4.50;;;;;;;14.30;73.25;99797.41;233003;215;137961;-60
2023/10/02 02:57:39;;;;;;;11.40;4.90;;;;;;;14.34;73.16;99796.27;232816;213;152046;-60
2023/10/02 03:02:45;;;;;;;10.40;5.00;;;;;;;14.38;73.16;99801.34;232905;215;138874;-59
2023/10/02 03:07:56;;;;;;;14.80;5.40;;;;;;;14.43;73.13;99798.13;232849;215;138110;-59
2023/10/02 03:13:00;;;;;;;11.10;5.20;;;;;;;14.42;73.10;99800.14;232890;215;151044;-59
2023/10/02 03:18:22;;;;;;;11.10;5.70;;;;;;;14.42;73.24;99794.30;232869;215;139429;-60
2023/10/02 03:23:30;;;;;;;12.00;5.40;;;;;;;14.41;73.43;99800.45;232939;215;137064;-61
2023/10/02 03:28:34;;;;;;;10.70;4.80;;;;;;;14.40;73.53;99804.06;232843;215;149273;-60
2023/10/02 03:33:38;;;;;;;11.70;5.00;;;;;;;14.44;73.68;99800.96;233122;214;140179;-63
2023/10/02 03:38:42;;;;;;;11.60;5.70;;;;;;;14.52;73.67;99798.11;232922;215;137505;-61
2023/10/02 03:43:46;;;;;;;13.10;5.40;;;;;;;14.57;73.54;99796.20;233012;215;149287;-60
2023/10/02 03:48:51;;;;;;;10.00;5.10;;;;;;;14.57;73.64;99795.81;232773;215;139444;-61
2023/10/02 03:54:17;;;;;;;10.90;6.00;;;;;;;14.58;73.48;99801.67;232912;215;136858;-63
2023/10/02 03:59:27;;;;;;;15.40;5.70;;;;;;;14.56;73.41;99807.70;232866;215;149301;-61
2023/10/02 04:04:32;;;;;;;9.60;5.00;;;;;;;14.53;73.42;99807.91;232945;215;139331;-60
2023/10/02 04:09:36;;;;;;;;;;;;;;;14.53;73.48;99811.65;232952;215;138609;-60
2023/10/02 04:14:40;;;;;;;172.60;148.00;;;;;;;14.55;73.39;99806.48;233082;215;150910;-63
2023/10/02 04:19:49;;;;;;;60.60;46.20;;;;;;;14.62;73.82;99805.48;232879;215;139965;-58
2023/10/02 04:24:58;;;;;;;10.90;6.20;;;;;;;14.76;73.43;99806.20;232937;215;138631;-62
2023/10/02 04:40:51;;;;;;;11.00;5.60;;;;;;;14.89;72.27;99805.16;233013;215;136969;-58
2023/10/02 04:46:01;;;;;;;365.30;309.20;;;;;;;14.84;72.30;99812.58;232785;215;149538;-62
2023/10/02 04:51:09;;;;;;;56.10;44.90;;;;;;;14.89;72.55;99815.52;232898;215;141249;-61
2023/10/02 05:01:34;;;;;;;13.60;5.30;;;;;;;15.30;72.35;99825.92;232930;215;151018;-59
2023/10/02 05:06:44;;;;;;;15.10;5.40;;;;;;;15.32;71.38;99830.27;232927;215;138172;-58
2023/10/02 05:11:55;;;;;;;298.90;256.90;;;;;;;15.23;71.33;99830.52;232928;215;138271;-62
2023/10/02 05:17:16;;;;;;;38.20;28.60;;;;;;;15.20;71.48;99830.52;232825;215;150343;-59
2023/10/02 05:22:27;;;;;;;16.30;5.90;;;;;;;15.23;71.44;99837.30;232889;215;137743;-62
2023/10/02 05:27:35;;;;;;;13.70;5.20;;;;;;;15.17;71.20;99840.95;232922;215;137987;-59
2023/10/02 05:32:40;;;;;;;12.00;5.30;;;;;;;15.12;71.54;99843.20;232835;215;149920;-58
2023/10/02 05:37:46;;;;;;;12.00;5.00;;;;;;;15.10;71.63;99838.32;233001;215;139423;-57
2023/10/02 05:48:07;;;;;;;12.40;5.40;;;;;;;15.23;71.29;99828.02;232941;215;151509;-57
2023/10/02 05:53:11;;;;;;;77.60;58.20;;;;;;;15.25;71.54;99836.77;232981;215;139211;-57
2023/10/02 05:58:27;;;;;;;12.30;5.80;;;;;;;15.31;71.56;99835.66;232998;215;137101;-58
2023/10/02 06:03:34;;;;;;;11.10;5.30;;;;;;;15.35;71.34;99842.34;232940;214;149194;-60
2023/10/02 06:08:41;;;;;;;10.30;4.60;;;;;;;15.36;71.07;99845.52;232952;215;138826;-58
2023/10/02 06:13:44;;;;;;;16.50;4.80;;;;;;;15.41;70.97;99850.21;232905;215;138541;-60
2023/10/02 06:19:00;;;;;;;11.00;4.60;;;;;;;15.46;70.98;99855.38;232906;215;149301;-61
2023/10/02 06:24:07;;;;;;;14.60;4.70;;;;;;;15.59;70.75;99861.96;232867;215;138867;-61
2023/10/02 06:29:25;;;;;;;15.20;5.10;;;;;;;15.68;70.30;99865.86;232983;215;137336;-60
2023/10/02 06:34:37;;;;;;;11.40;4.50;;;;;;;15.74;70.13;99867.24;232875;215;149021;-58
2023/10/02 06:39:45;;;;;;;13.40;5.10;;;;;;;15.83;69.96;99871.64;232885;214;138613;-61
2023/10/02 06:44:52;;;;;;;14.90;4.80;;;;;;;15.91;70.07;99869.83;232983;215;137366;-58
2023/10/02 06:50:23;;;;;;;16.50;9.50;;;;;;;15.99;69.92;99872.98;232962;215;150299;-58
2023/10/02 06:55:34;;;;;;;86.30;66.50;;;;;;;16.04;69.41;99873.86;232971;214;140892;-58
2023/10/02 07:01:01;;;;;;;17.40;4.90;;;;;;;16.15;69.15;99867.89;232897;215;138350;-59
2023/10/02 07:06:07;;;;;;;10.00;3.80;;;;;;;16.29;68.68;99869.23;232837;214;149023;-59
2023/10/02 07:11:11;;;;;;;9.90;3.90;;;;;;;16.39;68.22;99875.67;232939;215;140601;-59
2023/10/02 07:16:17;;;;;;;10.40;4.10;;;;;;;16.47;67.99;99877.91;232951;215;137117;-58
2023/10/02 07:21:22;;;;;;;12.00;4.70;;;;;;;16.55;67.57;99878.59;233021;215;149522;-59
2023/10/02 07:31:48;;;;;;;9.90;3.80;;;;;;;16.60;67.07;99875.72;232874;215;136866;-60
2023/10/02 07:36:53;;;;;;;9.40;3.80;;;;;;;16.64;67.14;99877.77;232793;215;149403;-61
2023/10/02 07:42:00;;;;;;;11.70;4.00;;;;;;;16.73;67.13;99877.16;232837;215;140078;-58
2023/10/02 07:47:19;;;;;;;10.30;3.90;;;;;;;16.79;66.92;99880.98;232848;215;137852;-58
2023/10/02 07:52:35;;;;;;;15.80;4.70;;;;;;;16.93;67.05;99879.46;232923;215;149341;-59
2023/10/02 07:57:40;;;;;;;7.10;3.80;;;;;;;17.06;66.66;99882.04;232864;215;138719;-59
2023/10/02 08:02:44;;;;;;;8.10;4.00;;;;;;;17.19;66.20;99885.88;232935;214;138344;-60
2023/10/02 08:08:08;;;;;;;10.40;4.00;;;;;;;17.31;66.10;99884.04;232918;215;149058;-58
2023/10/02 08:13:14;;;;;;;7.60;3.80;;;;;;;17.45;65.69;99873.88;232917;215;140483;-64
2023/10/02 08:18:18;;;;;;;11.80;3.50;;;;;;;17.52;65.43;99875.48;232940;215;137271;-63
2023/10/02 08:23:22;;;;;;;10.20;4.00;;;;;;;17.58;65.17;99870.88;232953;215;150317;-64
2023/10/02 08:28:33;;;;;;;9.90;3.90;;;;;;;17.64;64.87;99864.31;232917;215;138497;-64
2023/10/02 08:33:43;;;;;;;12.40;5.40;;;;;;;17.67;64.20;99864.04;232986;214;138118;-61
2023/10/02 08:39:05;;;;;;;11.40;4.60;;;;;;;17.77;64.42;99859.91;232898;215;149225;-61
2023/10/02 08:44:23;;;;;;;12.80;4.90;;;;;;;17.82;63.46;99862.73;232811;215;139242;-62
2023/10/02 08:49:30;;;;;;;10.90;5.00;;;;;;;17.89;63.59;99859.15;232929;215;137314;-62
2023/10/02 08:54:34;;;;;;;13.70;4.80;;;;;;;17.95;63.62;99851.49;232962;215;151100;-62
2023/10/02 08:59:38;;;;;;;12.50;4.70;;;;;;;18.10;63.49;99851.19;232960;215;139947;-60
2023/10/02 09:04:55;;;;;;;12.10;5.20;;;;;;;18.25;63.38;99854.77;232977;215;137843;-59
2023/10/02 09:10:18;;;;;;;11.30;5.10;;;;;;;18.36;62.85;99843.48;232927;215;148722;-59
2023/10/02 09:15:30;;;;;;;11.00;5.10;;;;;;;18.55;63.03;99839.94;232958;215;138739;-59
2023/10/02 09:20:53;;;;;;;12.50;5.30;;;;;;;18.76;62.13;99830.39;232889;215;137452;-55
2023/10/02 09:31:28;;;;;;;14.30;8.10;;;;;;;19.01;61.56;99830.73;232947;215;139547;-60
2023/10/02 09:36:47;;;;;;;9.80;4.60;;;;;;;19.07;60.83;99834.54;233005;215;137468;-58
2023/10/02 09:42:14;;;;;;;14.50;4.50;;;;;;;19.10;60.65;99824.42;232914;215;150333;-57
2023/10/02 09:47:25;;;;;;;9.40;4.60;;;;;;;19.15;60.80;99814.85;232826;215;138542;-58
2023/10/02 09:52:34;;;;;;;11.10;4.60;;;;;;;19.22;60.35;99810.98;232903;215;136879;-59
2023/10/02 09:57:49;;;;;;;9.80;4.70;;;;;;;19.29;60.24;99810.77;232910;215;149231;-58
2023/10/02 10:03:23;;;;;;;13.20;4.90;;;;;;;19.36;60.16;99815.70;232970;215;140174;-60
2023/10/02 10:08:33;;;;;;;185.80;133.10;;;;;;;19.45;60.43;99819.43;232875;214;137146;-59
2023/10/02 10:13:37;;;;;;;11.50;5.30;;;;;;;19.56;60.14;99817.91;232843;215;151594;-59
2023/10/02 10:30:10;;;;;;;7.90;3.80;;;;;;;20.36;58.70;99820.59;232844;215;150526;-59
2023/10/02 10:35:35;;;;;;;12.00;4.20;;;;;;;20.56;57.91;99820.13;232895;214;139501;-59
2023/10/02 10:40:47;;;;;;;9.70;3.60;;;;;;;20.64;57.16;99821.41;232990;215;141054;-60
2023/10/02 10:45:54;;;;;;;7.10;3.20;;;;;;;20.68;57.39;99811.83;232932;215;150033;-61
2023/10/02 10:51:00;;;;;;;65.40;41.80;;;;;;;20.80;57.41;99809.45;232852;215;138861;-60
2023/10/02 10:56:22;;;;;;;7.80;3.90;;;;;;;20.89;57.16;99808.20;232795;214;138454;-60
2023/10/02 11:01:27;;;;;;;8.90;4.00;;;;;;;20.93;57.18;99794.31;232835;214;150711;-60
2023/10/02 11:06:40;;;;;;;10.30;4.00;;;;;;;20.97;56.87;99796.66;232997;215;138031;-61
2023/10/02 11:11:49;;;;;;;8.40;4.00;;;;;;;20.97;57.11;99785.50;232871;215;137245;-60
2023/10/02 11:16:55;;;;;;;7.30;3.60;;;;;;;21.08;57.10;99779.42;232922;215;148597;-60
2023/10/02 11:22:18;;;;;;;8.90;3.00;;;;;;;21.16;56.61;99772.72;232821;215;137999;-58
2023/10/02 11:27:24;;;;;;;5.70;2.80;;;;;;;21.25;56.72;99762.08;232891;215;137899;-60
2023/10/02 11:32:53;;;;;;;5.30;2.80;;;;;;;21.47;57.16;99757.31;232915;215;149457;-61
2023/10/02 11:37:58;;;;;;;7.20;3.00;;;;;;;21.74;56.80;99756.10;232860;213;138127;-62
2023/10/02 11:43:03;;;;;;;;;;;;;;;21.83;56.14;99752.23;232878;215;137165;-56
2023/10/02 11:48:09;;;;;;;5.10;3.00;;;;;;;21.81;55.57;99750.26;232912;215;149793;-57
2023/10/02 11:53:15;;;;;;;6.50;2.90;;;;;;;21.66;55.31;99750.64;232754;215;139017;-60
2023/10/02 11:58:19;;;;;;;7.70;2.90;;;;;;;21.66;55.56;99747.72;232819;214;137058;-61
2023/10/02 12:03:22;;;;;;;5.40;2.60;;;;;;;21.66;55.58;99751.48;232806;214;150118;-60
2023/10/02 12:08:27;;;;;;;;;;;;;;;21.69;56.11;99741.95;232834;214;140391;-61
2023/10/02 12:13:32;;;;;;;6.70;2.70;;;;;;;21.70;56.01;99733.05;232900;214;134740;-61
2023/10/02 12:18:40;;;;;;;6.10;3.50;;;;;;;21.69;56.23;99731.00;232714;214;149814;-59
2023/10/02 12:23:44;;;;;;;5.10;2.80;;;;;;;21.78;56.11;99731.90;232664;214;140122;-59
2023/10/02 12:28:49;;;;;;;96.60;83.00;;;;;;;21.86;55.53;99731.45;232925;214;138255;-58
2023/10/02 12:33:53;;;;;;;12.20;8.70;;;;;;;21.88;55.26;99725.45;232883;214;149712;-58
2023/10/02 12:39:00;;;;;;;7.00;3.40;;;;;;;21.89;54.96;99730.23;232795;214;138781;-60
2023/10/02 12:44:07;;;;;;;7.60;3.00;;;;;;;21.87;54.98;99731.19;232915;214;137234;-61
2023/10/02 12:49:13;;;;;;;5.90;3.20;;;;;;;21.93;55.67;99725.58;232835;214;148177;-63
2023/10/02 12:54:19;;;;;;;7.20;3.40;;;;;;;22.01;55.42;99723.13;232960;214;140269;-62
2023/10/02 12:59:23;;;;;;;7.40;3.20;;;;;;;22.14;54.89;99714.48;233042;214;136959;-63
2023/10/02 13:04:29;;;;;;;6.30;3.00;;;;;;;22.17;54.68;99711.81;232839;214;150112;-64
2023/10/02 13:09:33;;;;;;;7.20;3.30;;;;;;;22.24;55.18;99702.81;232948;214;139428;-69
2023/10/02 13:14:37;;;;;;;11.50;3.20;;;;;;;22.34;54.79;99704.91;232879;214;138387;-62
2023/10/02 13:19:41;;;;;;;5.90;3.10;;;;;;;22.48;54.64;99700.98;232853;214;150835;-63
2023/10/02 13:24:45;;;;;;;5.10;2.60;;;;;;;22.52;54.18;99692.04;232870;214;139964;-61
2023/10/02 13:29:51;;;;;;;5.60;3.10;;;;;;;22.42;54.21;99691.54;232946;214;137976;-65
2023/10/02 13:34:56;;;;;;;5.60;2.90;;;;;;;22.32;54.48;99689.50;232850;214;149349;-64
2023/10/02 13:40:00;;;;;;;5.90;2.90;;;;;;;22.20;54.49;99682.54;232861;214;138847;-64
2023/10/02 13:45:05;;;;;;;6.10;2.80;;;;;;;22.14;55.07;99673.58;232831;214;138323;-63
2023/10/02 13:50:09;;;;;;;8.40;3.00;;;;;;;22.10;55.60;99670.91;232826;215;149957;-61
2023/10/02 13:55:19;;;;;;;6.90;3.70;;;;;;;22.04;55.51;99662.14;232856;215;138999;-62
2023/10/02 14:00:26;;;;;;;7.20;3.00;;;;;;;22.04;55.23;99663.99;232985;215;136869;-64
2023/10/02 14:05:35;;;;;;;8.30;3.20;;;;;;;22.04;55.24;99653.52;232884;215;149141;-63
2023/10/02 14:10:40;;;;;;;4.80;2.20;;;;;;;22.00;55.25;99649.31;232875;214;139562;-64
2023/10/02 14:15:43;;;;;;;69.10;58.80;;;;;;;22.00;54.87;99645.42;232901;215;138000;-60
2023/10/02 14:21:05;;;;;;;5.90;4.00;;;;;;;21.94;54.54;99648.11;232986;215;149736;-62
2023/10/02 14:26:11;;;;;;;5.60;3.00;;;;;;;21.88;54.97;99646.91;232980;214;140403;-61
2023/10/02 14:31:31;;;;;;;4.50;2.30;;;;;;;21.88;55.11;99648.02;232831;215;137881;-62
2023/10/02 14:36:35;;;;;;;5.60;2.70;;;;;;;21.88;54.65;99640.57;232927;215;150523;-61
2023/10/02 14:41:40;;;;;;;6.00;2.40;;;;;;;21.87;55.14;99640.16;232825;215;138654;-59
2023/10/02 14:46:43;;;;;;;4.80;2.20;;;;;;;21.85;54.78;99643.81;232964;215;138152;-61
2023/10/02 14:51:48;;;;;;;9.60;5.80;;;;;;;21.81;54.94;99639.81;232942;215;150129;-61
2023/10/02 14:56:53;;;;;;;6.20;2.60;;;;;;;21.77;54.71;99636.43;233036;215;137660;-61
2023/10/02 15:01:57;;;;;;;3.50;2.10;;;;;;;21.75;54.76;99635.27;232884;215;137572;-61
2023/10/02 15:07:01;;;;;;;3.50;2.00;;;;;;;21.70;54.95;99636.42;233098;215;286979;-63
2023/10/02 15:12:07;;;;;;;4.20;2.10;;;;;;;21.66;55.16;99639.83;232770;214;140148;-60
2023/10/02 15:17:11;;;;;;;3.70;2.00;;;;;;;21.66;55.45;99638.27;232882;214;137478;-61
2023/10/02 15:22:15;;;;;;;3.50;2.00;;;;;;;21.60;55.26;99633.02;232811;215;150585;-58
2023/10/02 15:27:19;;;;;;;193.90;173.20;;;;;;;21.57;55.30;99636.95;232656;214;139143;-60
2023/10/02 15:32:23;;;;;;;20.40;16.30;;;;;;;21.55;55.34;99641.33;232715;215;140975;-63
2023/10/02 15:37:26;;;;;;;6.00;3.20;;;;;;;21.51;55.41;99645.38;232873;215;149505;-61
2023/10/02 15:42:30;;;;;;;16.00;13.00;;;;;;;21.45;55.49;99643.58;232631;214;139678;-60
2023/10/02 15:47:34;;;;;;;4.60;2.80;;;;;;;21.42;55.73;99640.79;232797;215;138046;-65
2023/10/02 15:52:37;;;;;;;7.10;4.10;;;;;;;21.33;57.59;99642.04;232793;214;149946;-57
2023/10/02 15:57:42;;;;;;;226.70;191.30;;;;;;;21.19;58.30;99643.38;232824;215;138488;-62
2023/10/02 16:02:48;;;;;;;23.20;17.20;;;;;;;21.03;59.04;99646.88;233012;215;137597;-61
2023/10/02 16:07:52;;;;;;;7.10;4.30;;;;;;;20.90;59.62;99645.56;232699;214;149812;-61
2023/10/02 16:12:57;;;;;;;6.40;3.70;;;;;;;20.73;60.27;99651.20;232848;214;139591;-61
2023/10/02 16:18:01;;;;;;;8.30;5.20;;;;;;;20.57;61.02;99655.59;233062;214;137164;-59
2023/10/02 16:23:05;;;;;;;8.70;6.20;;;;;;;20.47;62.02;99655.25;232799;214;149372;-60
2023/10/02 16:28:11;;;;;;;10.90;4.70;;;;;;;20.33;62.72;99653.06;232908;214;138981;-59
2023/10/02 16:33:15;;;;;;;11.40;4.80;;;;;;;20.24;63.34;99658.80;233022;215;137392;-58
2023/10/02 16:38:19;;;;;;;812.00;678.90;;;;;;;20.17;63.75;99661.60;232783;214;149126;-61
2023/10/02 16:43:22;;;;;;;23.00;13.70;;;;;;;20.15;64.36;99663.27;232819;214;139080;-63
2023/10/02 16:48:26;;;;;;;12.80;5.10;;;;;;;20.03;64.46;99664.85;232967;215;138187;-61
2023/10/02 16:53:29;;;;;;;12.90;4.30;;;;;;;19.89;64.65;99659.98;233101;215;151067;-61
2023/10/02 16:58:33;;;;;;;9.70;4.20;;;;;;;19.71;65.19;99658.78;232892;215;140440;-61
2023/10/02 17:03:36;;;;;;;9.20;4.10;;;;;;;19.59;65.60;99661.24;233017;214;140659;-59
2023/10/02 17:08:41;;;;;;;6.70;3.40;;;;;;;19.48;65.95;99661.67;233139;214;149466;-61
2023/10/02 17:13:45;;;;;;;8.80;4.80;;;;;;;19.33;66.28;99662.52;232839;214;139992;-60
2023/10/02 17:18:49;;;;;;;91.00;68.70;;;;;;;19.21;67.15;99658.20;232870;214;138360;-68
2023/10/02 17:23:52;;;;;;;23.80;16.50;;;;;;;19.19;67.52;99658.13;232715;214;149861;-63
2023/10/02 17:28:56;;;;;;;11.90;4.80;;;;;;;19.31;67.44;99660.52;232770;214;138826;-65
2023/10/02 17:34:00;;;;;;;8.30;4.20;;;;;;;19.30;67.41;99659.67;232877;214;137507;-65
2023/10/02 17:39:06;;;;;;;8.40;4.20;;;;;;;19.28;67.49;99660.23;232741;214;149404;-65
2023/10/02 17:44:10;;;;;;;7.40;4.60;;;;;;;19.22;67.69;99668.13;232820;214;138804;-64
2023/10/02 17:49:23;;;;;;;11.50;5.10;;;;;;;19.13;67.99;99669.08;232730;214;137051;-67
2023/10/02 17:54:27;;;;;;;8.60;4.80;;;;;;;19.00;68.21;99664.64;232929;214;148044;-66
2023/10/02 17:59:31;;;;;;;13.60;5.60;;;;;;;18.91;68.73;99663.63;232811;214;140063;-64
2023/10/02 18:04:36;;;;;;;9.80;5.00;;;;;;;18.83;69.26;99663.12;232936;214;138227;-66
2023/10/02 18:09:40;;;;;;;13.00;5.10;;;;;;;18.77;69.66;99665.25;232882;214;149806;-66
2023/10/02 18:14:45;;;;;;;11.50;5.30;;;;;;;18.77;69.98;99666.33;232770;214;139440;-69
2023/10/02 18:19:49;;;;;;;237.50;201.30;;;;;;;18.77;70.14;99665.42;232757;214;137212;-65
2023/10/02 18:24:53;;;;;;;17.10;8.00;;;;;;;18.83;71.12;99665.27;232900;215;150595;-64
2023/10/02 18:29:59;;;;;;;73.10;62.10;;;;;;;18.75;70.19;99664.30;232929;214;138999;-70
2023/10/02 18:35:04;;;;;;;14.40;6.90;;;;;;;18.60;70.61;99662.89;232921;214;138107;-66
2023/10/02 18:40:10;;;;;;;16.10;6.40;;;;;;;18.44;70.86;99664.91;232814;214;150431;-64
2023/10/02 18:45:15;;;;;;;16.60;5.90;;;;;;;18.29;71.27;99662.60;232805;214;139480;-64
2023/10/02 18:50:19;;;;;;;172.10;133.10;;;;;;;18.24;71.95;99662.70;232803;214;137471;-61
2023/10/02 18:55:23;;;;;;;18.50;10.30;;;;;;;18.22;72.11;99664.15;232805;214;149245;-64
2023/10/02 19:00:27;;;;;;;15.10;6.80;;;;;;;18.13;72.12;99664.10;232702;214;137535;-63
2023/10/02 19:05:33;;;;;;;16.10;5.80;;;;;;;18.03;72.36;99661.93;232812;214;138369;-64
2023/10/02 19:10:38;;;;;;;15.80;6.10;;;;;;;17.93;72.72;99656.66;232729;214;151606;-61
2023/10/02 19:15:42;;;;;;;12.20;5.80;;;;;;;17.83;73.17;99655.73;232914;214;138848;-64
2023/10/02 19:20:46;;;;;;;14.50;6.00;;;;;;;17.73;73.43;99650.53;232844;214;137792;-62
2023/10/02 19:25:51;;;;;;;13.10;5.80;;;;;;;17.67;73.52;99646.86;232803;214;149289;-59
2023/10/02 19:30:54;;;;;;;18.30;6.10;;;;;;;17.66;73.72;99648.94;232730;214;137690;-60
2023/10/02 19:36:00;;;;;;;15.90;6.00;;;;;;;17.64;73.77;99650.56;232814;214;137934;-63
2023/10/02 19:41:19;;;;;;;;;;;;;;;17.56;73.85;99650.16;232871;214;149185;-63
2023/10/02 19:46:23;;;;;;;18.50;6.40;;;;;;;17.45;74.07;99651.38;232820;214;139643;-64
2023/10/02 19:51:27;;;;;;;13.90;6.10;;;;;;;17.35;74.35;99652.95;232766;214;138105;-60
2023/10/02 19:56:32;;;;;;;15.20;6.10;;;;;;;17.29;74.69;99651.44;232757;214;149731;-62
2023/10/02 20:01:35;;;;;;;16.70;6.60;;;;;;;17.29;74.75;99653.42;232837;215;139292;-62
2023/10/02 20:06:40;;;;;;;23.00;7.50;;;;;;;17.26;74.68;99651.98;232931;215;138408;-61
2023/10/02 20:11:45;;;;;;;15.60;6.10;;;;;;;17.21;74.72;99646.84;232945;215;149418;-62
2023/10/02 20:16:49;;;;;;;21.50;6.50;;;;;;;17.12;74.75;99643.46;232827;215;138877;-64
2023/10/02 20:21:52;;;;;;;13.30;5.50;;;;;;;17.03;74.89;99637.13;232886;215;137994;-61
2023/10/02 20:26:56;;;;;;;18.20;5.40;;;;;;;16.98;74.79;99635.61;232864;215;149492;-61
2023/10/02 20:32:03;;;;;;;12.70;5.30;;;;;;;16.93;74.77;99633.98;232897;215;141492;-58
2023/10/02 20:37:08;;;;;;;19.10;5.60;;;;;;;16.92;74.73;99637.83;232981;215;137199;-58
2023/10/02 20:42:11;;;;;;;19.30;5.40;;;;;;;16.87;74.71;99634.64;232911;215;148036;-63
2023/10/02 20:47:15;;;;;;;14.10;5.90;;;;;;;16.78;74.57;99638.91;232965;215;139051;-63
2023/10/02 20:52:19;;;;;;;11.70;5.10;;;;;;;16.70;74.86;99637.24;233033;215;137943;-60
2023/10/02 20:57:26;;;;;;;12.30;5.20;;;;;;;16.63;74.91;99634.39;232897;215;149100;-61
2023/10/02 21:02:30;;;;;;;;;;;;;;;16.60;75.00;99631.55;232908;215;141181;-62
2023/10/02 21:07:34;;;;;;;10.10;5.20;;;;;;;16.60;75.01;99638.52;232839;214;134648;-64
2023/10/02 21:12:38;;;;;;;12.10;5.70;;;;;;;16.59;75.04;99630.05;232778;214;150284;-63
2023/10/02 21:17:41;;;;;;;13.70;5.70;;;;;;;16.53;75.05;99630.09;232922;214;140007;-60
2023/10/02 21:22:45;;;;;;;13.70;5.80;;;;;;;16.47;75.17;99628.23;232963;214;137992;-63
2023/10/02 21:27:50;;;;;;;10.50;5.30;;;;;;;16.42;75.11;99631.36;232976;214;149193;-62
2023/10/02 21:32:55;;;;;;;10.10;5.40;;;;;;;16.38;75.21;99628.41;232939;214;138823;-65
2023/10/02 21:37:59;;;;;;;13.50;5.50;;;;;;;16.35;75.35;99623.05;232760;214;137262;-60
2023/10/02 21:43:03;;;;;;;9.80;5.00;;;;;;;16.32;75.42;99622.40;232722;214;149647;-60
2023/10/02 21:48:07;;;;;;;11.50;5.80;;;;;;;16.29;75.44;99626.06;232858;214;141289;-59
2023/10/02 21:53:11;;;;;;;11.80;5.50;;;;;;;16.23;75.50;99619.90;232835;214;137594;-62
2023/10/02 21:58:15;;;;;;;10.30;4.80;;;;;;;16.19;75.47;99618.95;232803;214;150600;-65
2023/10/02 22:03:19;;;;;;;10.90;5.20;;;;;;;16.16;75.54;99612.73;232756;214;138235;-62
2023/10/02 22:08:23;;;;;;;11.30;5.40;;;;;;;16.16;75.55;99601.08;232848;214;140855;-63
2023/10/02 22:13:29;;;;;;;10.20;5.90;;;;;;;16.15;75.46;99596.85;232881;214;149439;-62
2023/10/02 22:18:33;;;;;;;11.30;5.60;;;;;;;16.09;75.37;99590.20;232846;214;139310;-62
2023/10/02 22:23:39;;;;;;;13.00;5.70;;;;;;;16.01;75.52;99591.11;232770;214;137786;-62
2023/10/02 22:28:43;;;;;;;12.40;5.30;;;;;;;15.97;75.82;99592.67;232966;214;148194;-62
2023/10/02 22:33:47;;;;;;;10.60;6.00;;;;;;;15.97;75.65;99588.20;232923;214;139442;-61
2023/10/02 22:38:51;;;;;;;14.50;6.20;;;;;;;15.93;75.52;99589.97;232779;214;137761;-60
2023/10/02 22:43:57;;;;;;;10.40;6.00;;;;;;;15.88;75.91;99589.95;232817;214;150822;-61
2023/10/02 22:49:01;;;;;;;10.40;5.80;;;;;;;15.84;75.91;99584.50;232787;214;141258;-59
2023/10/02 22:54:07;;;;;;;10.80;5.60;;;;;;;15.78;75.97;99583.88;232795;214;137439;-62
2023/10/02 22:59:12;;;;;;;9.70;5.20;;;;;;;15.75;75.95;99580.17;232787;214;149122;-61
2023/10/02 23:04:16;;;;;;;12.20;5.40;;;;;;;15.74;75.97;99578.33;232775;214;139705;-63
2023/10/02 23:09:19;;;;;;;14.60;5.60;;;;;;;15.71;75.94;99579.10;232725;214;137229;-63
2023/10/02 23:14:23;;;;;;;11.40;5.30;;;;;;;15.68;75.93;99579.31;232818;214;150973;-62
2023/10/02 23:19:29;;;;;;;12.40;5.90;;;;;;;15.62;75.83;99580.05;232714;214;138696;-61
2023/10/02 23:24:40;;;;;;;10.40;5.10;;;;;;;15.56;75.98;99574.06;232739;214;137367;-63
2023/10/02 23:29:47;;;;;;;12.70;5.20;;;;;;;15.50;76.00;99573.27;232832;214;150211;-64
2023/10/02 23:34:50;;;;;;;11.70;5.30;;;;;;;15.44;76.00;99568.20;232817;214;139407;-62
2023/10/02 23:39:55;;;;;;;11.00;4.90;;;;;;;15.43;76.07;99566.67;232786;214;137439;-56
2023/10/02 23:44:59;;;;;;;14.50;6.70;;;;;;;15.41;76.08;99564.98;232683;214;150522;-61
2023/10/02 23:50:05;;;;;;;11.70;6.10;;;;;;;15.37;76.07;99565.09;232758;214;139877;-61
2023/10/02 23:55:08;;;;;;;14.10;7.00;;;;;;;15.32;76.47;99559.73;232862;214;139121;-65
